Accueil
METAR-TAF:

METAR-TAF

Aéroports :

Athènes, Grèce

Aéroport international d'Athènes Elefthérios-Venizélos

latitude: 37-56N, longitude: 023-56E, altitude: 94 m

Observation

Le bulletin a été fait il y a 31 minutes, à 19:50 UTC
Vent 4 kt de ouest
Température 16°C
Humidité 48%
Pression 1017 hPa
Visibilité 10 km ou plus
pas de nuages en-dessous de 1500 mètres et pas de cumulonimbus.

METAR: LGAV 221950Z 27004KT CAVOK 16/05 Q1017 NOSIG

Heure: 23:21 (20:21 UTC)

Prévision

Le bulletin a été fait il y a 3 heures et 21 minutes, à 17:00 UTC
Prévision valable du 22 à 18 UTC au 23 à 18 UTC
Vent 5 kt de direction variable
Visibilité 10 km ou plus
Quelques nuages à une hauteur de 2500 ft
Temporairement
du 22 à 20 UTC au 22 à 23 UTC
Vent 10 kt de ouest/sud-ouest
Evoluant progressivement
du 23 à 07 UTC au 23 à 09 UTC
Vent 10 kt de est

TAF: LGAV 221700Z 2218/2318 VRB05KT 9999 FEW025 TEMPO 2220/2223 25010KT BECMG 2307/2309 08010KT

Observations et prévisions météorologiques de plus de 4000 aéroports (messages METAR et TAF).

Les stations disponibles sont représentées par des disques jaunes et rouges sur la carte.

Passer la souris dessus pour voir le nom de la station.

Cliquer dessus pour voir les observations et prévisions météorologiques.

Pour changer de carte: cliquez sur les boutons verts avec une croix noire pour zoomer, sur le bouton vert avec un tiret pour effectuer un zoom arrière, ou sur les flèches vertes pour les cartes adjacentes.


METAR-TAF: